createdAt,value
2019-02-24T00:03:11.999Z,103330.31
2019-02-24T00:07:15.414Z,103328.39
2019-02-24T00:11:21.953Z,103336.70
2019-02-24T00:15:25.328Z,103316.58
2019-02-24T00:19:28.709Z,103325.81
2019-02-24T00:23:32.122Z,103327.40
2019-02-24T00:27:35.560Z,103318.95
2019-02-24T00:31:38.886Z,103321.06
2019-02-24T00:35:42.242Z,103310.20
2019-02-24T00:39:45.551Z,103305.05
2019-02-24T00:43:48.958Z,103296.44
2019-02-24T00:47:52.367Z,103295.33
2019-02-24T00:51:55.773Z,103296.47
2019-02-24T00:55:59.180Z,103292.89
2019-02-24T01:00:02.591Z,103292.92
2019-02-24T01:04:05.998Z,103284.33
2019-02-24T01:08:09.418Z,103284.11
2019-02-24T01:12:13.123Z,103278.92
2019-02-24T01:16:16.534Z,103283.28
2019-02-24T01:20:19.835Z,103282.84
2019-02-24T01:24:23.252Z,103282.41
2019-02-24T01:28:26.669Z,103275.27
2019-02-24T01:32:30.067Z,103273.56
2019-02-24T01:36:33.380Z,103274.19
2019-02-24T01:40:36.783Z,103271.20
2019-02-24T01:44:40.190Z,103274.13
2019-02-24T01:48:43.702Z,103269.20
2019-02-24T01:52:47.063Z,103265.26
2019-02-24T01:56:50.417Z,103269.94
2019-02-24T02:00:53.828Z,103263.87
2019-02-24T02:04:58.531Z,103262.34
2019-02-24T02:09:01.972Z,103262.97
2019-02-24T02:13:05.386Z,103262.05
2019-02-24T02:17:08.790Z,103268.56
2019-02-24T02:21:12.200Z,103273.23
2019-02-24T02:25:15.586Z,103265.66
2019-02-24T02:29:19.018Z,103266.89
2019-02-24T02:33:22.430Z,103262.81
2019-02-24T02:37:25.834Z,103268.30
2019-02-24T02:41:29.245Z,103266.02
2019-02-24T02:45:33.677Z,103265.26
2019-02-24T02:49:37.090Z,103270.30
2019-02-24T02:53:40.490Z,103280.06
2019-02-24T02:57:43.800Z,103278.46
2019-02-24T03:01:47.117Z,103280.16
2019-02-24T03:05:58.092Z,103299.91
2019-02-24T03:10:02.875Z,103312.71
2019-02-24T03:14:06.342Z,103305.27
2019-02-24T03:18:09.661Z,103307.91
2019-02-24T03:22:13.071Z,103301.89
2019-02-24T03:26:16.374Z,103301.89
2019-02-24T03:30:19.773Z,103301.98
2019-02-24T03:34:23.079Z,103302.62
2019-02-24T03:38:26.491Z,103303.54
2019-02-24T03:42:30.143Z,103286.55
2019-02-24T03:46:33.525Z,103276.41
2019-02-24T03:50:37.021Z,103278.16
2019-02-24T03:54:40.429Z,103270.57
2019-02-24T03:58:43.838Z,103270.84
2019-02-24T04:02:47.146Z,103270.19
2019-02-24T04:06:50.460Z,103269.92
2019-02-24T04:10:53.865Z,103270.41
2019-02-24T04:14:57.267Z,103265.72
2019-02-24T04:19:00.675Z,103262.52
2019-02-24T04:23:04.160Z,103264.14
2019-02-24T04:27:07.495Z,103260.25
2019-02-24T04:31:10.909Z,103255.18
2019-02-24T04:35:14.197Z,103252.78
2019-02-24T04:39:17.617Z,103249.39
2019-02-24T04:43:21.037Z,103245.17
2019-02-24T04:47:24.354Z,103244.44
2019-02-24T04:51:27.741Z,103248.36
2019-02-24T04:55:31.151Z,103244.20
2019-02-24T04:59:35.345Z,103246.05
2019-02-24T05:03:38.772Z,103250.37
2019-02-24T05:07:42.096Z,103247.13
2019-02-24T05:11:45.712Z,103245.56
2019-02-24T05:15:49.115Z,103252.66
2019-02-24T05:19:52.514Z,103243.09
2019-02-24T05:23:55.939Z,103239.55
2019-02-24T05:27:59.236Z,103249.45
2019-02-24T05:32:02.648Z,103247.36
2019-02-24T05:36:05.955Z,103258.64
2019-02-24T05:40:09.364Z,103254.81
2019-02-24T05:44:12.997Z,103262.73
2019-02-24T05:48:16.350Z,103269.29
2019-02-24T05:52:19.693Z,103275.74
2019-02-24T05:56:23.110Z,103279.27
2019-02-24T06:00:26.525Z,103271.30
2019-02-24T06:04:29.921Z,103270.57
2019-02-24T06:08:33.324Z,103269.78
2019-02-24T06:12:36.739Z,103266.65
2019-02-24T06:16:40.123Z,103265.77
2019-02-24T06:20:43.447Z,103268.44
2019-02-24T06:24:46.860Z,103281.16
2019-02-24T06:28:50.367Z,103281.16
2019-02-24T06:32:53.881Z,103282.23
2019-02-24T06:36:57.309Z,103272.27
2019-02-24T06:41:00.700Z,103276.09
2019-02-24T06:45:05.119Z,103281.22
2019-02-24T06:49:08.541Z,103266.83
2019-02-24T06:53:12.950Z,103265.45
2019-02-24T06:57:16.981Z,103247.51
2019-02-24T07:01:20.404Z,103227.77
2019-02-24T07:05:23.824Z,103210.36
2019-02-24T07:09:27.241Z,103210.68
2019-02-24T07:13:30.649Z,103212.34
2019-02-24T07:17:34.051Z,103209.26
2019-02-24T07:21:37.445Z,103215.44
2019-02-24T07:25:40.875Z,103207.16
2019-02-24T07:29:44.216Z,103202.92
2019-02-24T07:33:47.778Z,103189.43
2019-02-24T07:37:51.104Z,103183.36
2019-02-24T07:41:54.488Z,103198.56
2019-02-24T07:45:57.787Z,103206.53
2019-02-24T07:50:01.222Z,103223.55
2019-02-24T07:54:04.520Z,103228.33
2019-02-24T07:58:07.918Z,103233.69
2019-02-24T08:02:11.225Z,103244.80
2019-02-24T08:06:14.520Z,103239.10
2019-02-24T08:10:17.941Z,103242.65
2019-02-24T08:14:21.262Z,103237.09
2019-02-24T08:18:24.660Z,103233.77
2019-02-24T08:22:28.006Z,103227.80
2019-02-24T08:26:31.335Z,103226.13
2019-02-24T08:30:41.627Z,103237.47
2019-02-24T08:34:40.954Z,103243.30
2019-02-24T08:38:44.362Z,103243.66
2019-02-24T08:42:47.772Z,103219.67
2019-02-24T08:46:51.192Z,103218.12
2019-02-24T08:50:54.588Z,103220.61
2019-02-24T08:54:57.997Z,103222.31
2019-02-24T08:59:01.405Z,103222.19
2019-02-24T09:03:04.814Z,103216.17
2019-02-24T09:07:08.635Z,103209.17
2019-02-24T09:11:12.013Z,103220.35
2019-02-24T09:15:15.696Z,103223.94
2019-02-24T09:19:19.259Z,103219.70
2019-02-24T09:23:22.643Z,103206.41
2019-02-24T09:27:25.983Z,103202.59
2019-02-24T09:31:29.612Z,103204.34
2019-02-24T09:35:33.005Z,103214.25
2019-02-24T09:39:36.414Z,103220.08
2019-02-24T09:43:39.821Z,103220.96
2019-02-24T09:47:46.720Z,103237.19
2019-02-24T09:51:48.589Z,103242.61
2019-02-24T09:55:51.995Z,103240.77
2019-02-24T09:59:55.406Z,103236.10
2019-02-24T10:03:58.793Z,103231.22
2019-02-24T10:08:02.226Z,103223.19
2019-02-24T10:12:05.594Z,103229.30
2019-02-24T10:16:09.039Z,103233.45
2019-02-24T10:20:12.949Z,103241.13
2019-02-24T10:24:16.369Z,103245.80
2019-02-24T10:28:19.781Z,103240.28
2019-02-24T10:32:23.203Z,103239.63
2019-02-24T10:36:26.598Z,103247.21
2019-02-24T10:40:30.004Z,103243.20
2019-02-24T10:44:33.416Z,103230.37
2019-02-24T10:48:36.752Z,103224.88
2019-02-24T10:52:40.244Z,103235.49
2019-02-24T10:56:43.765Z,103223.75
2019-02-24T11:00:47.154Z,103216.83
2019-02-24T11:04:50.588Z,103228.20
2019-02-24T11:08:53.894Z,103228.07
2019-02-24T11:12:57.483Z,103221.31
2019-02-24T11:17:00.895Z,103230.37
2019-02-24T11:21:04.299Z,103236.15
2019-02-24T11:25:09.617Z,103233.20
2019-02-24T11:29:13.052Z,103245.44
2019-02-24T11:33:16.473Z,103248.30
2019-02-24T11:37:19.884Z,103256.16
2019-02-24T11:41:23.291Z,103238.69
2019-02-24T11:45:26.700Z,103244.58
2019-02-24T11:49:30.121Z,103244.41
2019-02-24T11:53:33.518Z,103239.08
2019-02-24T11:57:36.847Z,103234.67
2019-02-24T12:01:47.315Z,103232.73
2019-02-24T12:05:45.279Z,103227.77
2019-02-24T12:09:48.691Z,103206.67
2019-02-24T12:13:52.205Z,103236.00
2019-02-24T12:17:55.609Z,103219.18
2019-02-24T12:21:58.904Z,103219.18
2019-02-24T12:26:02.221Z,103228.46
2019-02-24T12:30:08.909Z,103214.33
2019-02-24T12:34:12.256Z,103212.47
2019-02-24T12:38:15.552Z,103208.70
2019-02-24T12:42:18.936Z,103200.13
2019-02-24T12:46:22.342Z,103197.23
2019-02-24T12:50:25.671Z,103207.13
2019-02-24T12:54:29.062Z,103204.12
2019-02-24T12:58:32.455Z,103204.67
2019-02-24T13:02:35.762Z,103196.20
2019-02-24T13:06:39.083Z,103199.23
2019-02-24T13:10:42.377Z,103193.26
2019-02-24T13:14:46.104Z,103193.26
2019-02-24T13:18:49.498Z,103198.90
2019-02-24T13:22:52.817Z,103188.31
2019-02-24T13:26:56.224Z,103182.53
2019-02-24T13:30:59.562Z,103175.08
2019-02-24T13:35:04.597Z,103169.67
2019-02-24T13:39:07.993Z,103157.12
2019-02-24T13:43:11.360Z,103147.01
2019-02-24T13:47:14.710Z,103146.62
2019-02-24T13:51:18.116Z,103156.44
2019-02-24T13:55:21.443Z,103158.80
2019-02-24T13:59:24.828Z,103164.42
2019-02-24T14:03:28.139Z,103175.22
2019-02-24T14:07:31.436Z,103171.81
2019-02-24T14:11:34.798Z,103167.16
2019-02-24T14:15:38.216Z,103162.83
2019-02-24T14:19:41.612Z,103168.01
2019-02-24T14:23:44.905Z,103163.74
2019-02-24T14:27:48.281Z,103164.12
2019-02-24T14:31:51.589Z,103172.87
2019-02-24T14:35:54.926Z,103169.52
2019-02-24T14:39:58.243Z,103174.77
2019-02-24T14:44:01.556Z,103170.50
2019-02-24T14:48:05.743Z,103174.92
2019-02-24T14:52:09.074Z,103168.65
2019-02-24T14:56:12.561Z,103162.56
2019-02-24T15:00:21.737Z,103150.16
2019-02-24T15:04:25.028Z,103154.58
2019-02-24T15:08:28.414Z,103151.88
2019-02-24T15:12:31.727Z,103149.37
2019-02-24T15:16:35.046Z,103164.30
2019-02-24T15:20:38.371Z,103177.19
2019-02-24T15:24:41.678Z,103176.15
2019-02-24T15:28:44.967Z,103171.18
2019-02-24T15:32:51.522Z,103169.83
2019-02-24T15:36:53.507Z,103166.03
2019-02-24T15:40:56.915Z,103159.54
2019-02-24T15:45:00.249Z,103170.45
2019-02-24T15:49:03.634Z,103168.35
2019-02-24T15:53:07.040Z,103175.03
2019-02-24T15:57:11.580Z,103174.67
2019-02-24T16:01:14.989Z,103179.13
2019-02-24T16:05:18.291Z,103179.26
2019-02-24T16:09:21.700Z,103177.19
2019-02-24T16:13:25.015Z,103186.73
2019-02-24T16:17:28.340Z,103181.72
2019-02-24T16:21:31.823Z,103178.00
2019-02-24T16:25:35.168Z,103183.77
2019-02-24T16:29:38.445Z,103178.51
2019-02-24T16:33:41.736Z,103183.69
2019-02-24T16:37:45.162Z,103188.98
2019-02-24T16:41:48.474Z,103183.02
2019-02-24T16:45:52.082Z,103189.39
2019-02-24T16:49:55.401Z,103190.17
2019-02-24T16:53:58.737Z,103190.08
2019-02-24T16:58:02.060Z,103186.82
2019-02-24T17:02:05.375Z,103193.67
2019-02-24T17:06:08.708Z,103196.44
2019-02-24T17:10:19.902Z,103185.84
2019-02-24T17:14:24.809Z,103196.16
2019-02-24T17:18:28.188Z,103196.21
2019-02-24T17:22:31.507Z,103198.57
2019-02-24T17:26:34.800Z,103198.66
2019-02-24T17:30:38.090Z,103209.84
2019-02-24T17:34:41.481Z,103215.25
2019-02-24T17:38:44.891Z,103210.43
2019-02-24T17:42:48.221Z,103213.08
2019-02-24T17:46:51.486Z,103221.54
2019-02-24T17:50:55.126Z,103226.28
2019-02-24T17:54:58.423Z,103215.36
2019-02-24T17:59:01.838Z,103223.06
2019-02-24T18:03:05.171Z,103213.72
2019-02-24T18:07:08.556Z,103214.59
2019-02-24T18:11:11.891Z,103219.35
2019-02-24T18:15:15.273Z,103219.35
2019-02-24T18:19:18.595Z,103210.84
2019-02-24T18:23:21.911Z,103215.98
2019-02-24T18:27:25.284Z,103220.69
2019-02-24T18:31:28.697Z,103221.95
2019-02-24T18:35:32.002Z,103229.15
2019-02-24T18:39:35.407Z,103221.94
2019-02-24T18:43:38.742Z,103228.42
2019-02-24T18:47:42.054Z,103228.44
2019-02-24T18:51:45.378Z,103227.59
2019-02-24T18:55:48.668Z,103229.70
2019-02-24T18:59:52.044Z,103230.13
2019-02-24T19:03:57.949Z,103217.86
2019-02-24T19:08:00.505Z,103230.98
2019-02-24T19:12:03.990Z,103236.47
2019-02-24T19:16:07.391Z,103240.73
2019-02-24T19:20:16.131Z,103247.06
2019-02-24T19:24:19.466Z,103244.94
2019-02-24T19:28:22.922Z,103250.44
2019-02-24T19:32:26.326Z,103254.25
2019-02-24T19:36:29.745Z,103270.75
2019-02-24T19:40:33.354Z,103271.58
2019-02-24T19:44:36.751Z,103276.66
2019-02-24T19:48:42.167Z,103277.52
2019-02-24T19:52:45.316Z,103278.80
2019-02-24T19:56:48.751Z,103279.22
2019-02-24T20:00:52.224Z,103272.03
2019-02-24T20:04:55.607Z,103271.59
2019-02-24T20:08:58.904Z,103269.00
2019-02-24T20:13:02.317Z,103267.28
2019-02-24T20:17:05.701Z,103280.81
2019-02-24T20:21:09.031Z,103276.16
2019-02-24T20:25:13.995Z,103278.30
2019-02-24T20:29:17.334Z,103275.80
2019-02-24T20:33:20.692Z,103275.38
2019-02-24T20:37:24.000Z,103276.22
2019-02-24T20:41:27.410Z,103277.73
2019-02-24T20:45:30.915Z,103283.20
2019-02-24T20:49:34.428Z,103299.33
2019-02-24T20:53:37.797Z,103297.27
2019-02-24T20:57:41.123Z,103294.30
2019-02-24T21:01:44.457Z,103304.39
2019-02-24T21:05:48.575Z,103304.37
2019-02-24T21:09:51.881Z,103298.86
2019-02-24T21:13:55.291Z,103286.22
2019-02-24T21:17:58.596Z,103283.70
2019-02-24T21:22:02.012Z,103276.51
2019-02-24T21:26:05.418Z,103275.73
2019-02-24T21:30:14.763Z,103275.64
2019-02-24T21:34:18.273Z,103270.11
2019-02-24T21:38:21.565Z,103276.84
2019-02-24T21:42:25.006Z,103281.86
2019-02-24T21:46:28.328Z,103281.45
2019-02-24T21:50:31.808Z,103282.38
2019-02-24T21:54:35.293Z,103286.12
2019-02-24T21:58:38.585Z,103285.10
2019-02-24T22:02:41.931Z,103287.58
2019-02-24T22:06:45.346Z,103287.13
2019-02-24T22:10:48.750Z,103285.05
2019-02-24T22:14:52.159Z,103286.58
2019-02-24T22:18:55.465Z,103285.75
2019-02-24T22:22:58.885Z,103279.78
2019-02-24T22:27:02.291Z,103283.45
2019-02-24T22:31:05.693Z,103272.95
2019-02-24T22:35:09.557Z,103277.23
2019-02-24T22:39:12.919Z,103271.80
2019-02-24T22:43:16.330Z,103270.12
2019-02-24T22:47:19.736Z,103265.45
2019-02-24T22:51:23.104Z,103269.19
2019-02-24T22:55:26.462Z,103276.36
2019-02-24T22:59:29.763Z,103273.06
2019-02-24T23:03:35.394Z,103267.19
2019-02-24T23:07:39.073Z,103264.16
2019-02-24T23:11:42.365Z,103253.62
2019-02-24T23:15:45.752Z,103253.95
2019-02-24T23:19:49.065Z,103240.88
2019-02-24T23:23:52.467Z,103237.58
2019-02-24T23:27:55.871Z,103227.45
2019-02-24T23:31:59.171Z,103229.89
2019-02-24T23:36:02.591Z,103217.25
2019-02-24T23:40:07.975Z,103218.06
2019-02-24T23:44:11.555Z,103214.75
2019-02-24T23:48:14.963Z,103207.95
2019-02-24T23:52:19.296Z,103205.38
2019-02-24T23:56:22.585Z,103204.08
